sensor_id;sensor_type;location;lat;lon;timestamp;P1;durP1;ratioP1;P2;durP2;ratioP2
14698;SDS011;7439;50.804;4.602;2023-06-26T00:02:25;6.93;;;5.50;;
14698;SDS011;7439;50.804;4.602;2023-06-26T00:04:52;7.47;;;5.87;;
14698;SDS011;7439;50.804;4.602;2023-06-26T00:07:20;6.20;;;5.60;;
14698;SDS011;7439;50.804;4.602;2023-06-26T00:09:48;6.43;;;5.83;;
14698;SDS011;7439;50.804;4.602;2023-06-26T00:12:15;6.40;;;5.77;;
14698;SDS011;7439;50.804;4.602;2023-06-26T00:14:43;6.10;;;5.37;;
14698;SDS011;7439;50.804;4.602;2023-06-26T00:17:11;6.00;;;5.50;;
14698;SDS011;7439;50.804;4.602;2023-06-26T00:19:40;5.87;;;5.27;;
14698;SDS011;7439;50.804;4.602;2023-06-26T00:22:07;9.30;;;5.67;;
14698;SDS011;7439;50.804;4.602;2023-06-26T00:24:34;6.50;;;5.90;;
14698;SDS011;7439;50.804;4.602;2023-06-26T00:27:02;10.13;;;5.90;;
14698;SDS011;7439;50.804;4.602;2023-06-26T00:29:29;5.30;;;4.80;;
14698;SDS011;7439;50.804;4.602;2023-06-26T00:31:57;6.10;;;5.40;;
14698;SDS011;7439;50.804;4.602;2023-06-26T00:34:24;6.63;;;4.93;;
14698;SDS011;7439;50.804;4.602;2023-06-26T00:36:53;5.73;;;5.13;;
14698;SDS011;7439;50.804;4.602;2023-06-26T00:39:20;7.00;;;5.03;;
14698;SDS011;7439;50.804;4.602;2023-06-26T00:41:50;7.73;;;4.60;;
14698;SDS011;7439;50.804;4.602;2023-06-26T00:44:19;5.57;;;4.07;;
14698;SDS011;7439;50.804;4.602;2023-06-26T00:46:47;4.93;;;4.53;;
14698;SDS011;7439;50.804;4.602;2023-06-26T00:49:14;5.80;;;4.77;;
14698;SDS011;7439;50.804;4.602;2023-06-26T00:51:42;4.57;;;4.17;;
14698;SDS011;7439;50.804;4.602;2023-06-26T00:54:11;5.03;;;4.47;;
14698;SDS011;7439;50.804;4.602;2023-06-26T00:56:45;5.70;;;4.67;;
14698;SDS011;7439;50.804;4.602;2023-06-26T00:59:12;4.97;;;4.23;;
14698;SDS011;7439;50.804;4.602;2023-06-26T01:01:40;5.03;;;4.53;;
14698;SDS011;7439;50.804;4.602;2023-06-26T01:04:07;7.43;;;4.47;;
14698;SDS011;7439;50.804;4.602;2023-06-26T01:06:42;6.60;;;4.93;;
14698;SDS011;7439;50.804;4.602;2023-06-26T01:09:15;4.77;;;4.37;;
14698;SDS011;7439;50.804;4.602;2023-06-26T01:11:43;6.37;;;4.97;;
14698;SDS011;7439;50.804;4.602;2023-06-26T01:14:11;7.10;;;4.50;;
14698;SDS011;7439;50.804;4.602;2023-06-26T01:16:38;6.77;;;4.87;;
14698;SDS011;7439;50.804;4.602;2023-06-26T01:19:08;4.90;;;4.03;;
14698;SDS011;7439;50.804;4.602;2023-06-26T01:21:36;6.53;;;4.57;;
14698;SDS011;7439;50.804;4.602;2023-06-26T01:24:07;5.00;;;4.50;;
14698;SDS011;7439;50.804;4.602;2023-06-26T01:26:38;5.47;;;4.20;;
14698;SDS011;7439;50.804;4.602;2023-06-26T01:29:07;6.53;;;4.43;;
14698;SDS011;7439;50.804;4.602;2023-06-26T01:31:36;5.00;;;4.50;;
14698;SDS011;7439;50.804;4.602;2023-06-26T01:34:04;4.97;;;4.27;;
14698;SDS011;7439;50.804;4.602;2023-06-26T01:36:31;6.17;;;4.47;;
14698;SDS011;7439;50.804;4.602;2023-06-26T01:38:59;5.23;;;4.23;;
14698;SDS011;7439;50.804;4.602;2023-06-26T01:41:26;4.13;;;3.73;;
14698;SDS011;7439;50.804;4.602;2023-06-26T01:44:03;5.83;;;4.10;;
14698;SDS011;7439;50.804;4.602;2023-06-26T01:46:37;5.70;;;4.40;;
14698;SDS011;7439;50.804;4.602;2023-06-26T01:49:07;4.63;;;4.20;;
14698;SDS011;7439;50.804;4.602;2023-06-26T01:51:38;7.13;;;3.93;;
14698;SDS011;7439;50.804;4.602;2023-06-26T01:54:08;5.70;;;4.17;;
14698;SDS011;7439;50.804;4.602;2023-06-26T01:56:37;4.60;;;4.07;;
14698;SDS011;7439;50.804;4.602;2023-06-26T01:59:07;5.60;;;4.00;;
14698;SDS011;7439;50.804;4.602;2023-06-26T02:01:34;7.27;;;4.13;;
14698;SDS011;7439;50.804;4.602;2023-06-26T02:04:03;5.07;;;4.10;;
14698;SDS011;7439;50.804;4.602;2023-06-26T02:06:57;5.90;;;3.87;;
14698;SDS011;7439;50.804;4.602;2023-06-26T02:09:58;3.97;;;3.60;;
14698;SDS011;7439;50.804;4.602;2023-06-26T02:12:28;5.17;;;3.70;;
14698;SDS011;7439;50.804;4.602;2023-06-26T02:14:57;4.30;;;3.90;;
14698;SDS011;7439;50.804;4.602;2023-06-26T02:17:24;5.47;;;4.40;;
14698;SDS011;7439;50.804;4.602;2023-06-26T02:19:54;4.50;;;4.07;;
14698;SDS011;7439;50.804;4.602;2023-06-26T02:22:21;8.53;;;4.43;;
14698;SDS011;7439;50.804;4.602;2023-06-26T02:24:49;4.23;;;3.83;;
14698;SDS011;7439;50.804;4.602;2023-06-26T02:27:16;6.37;;;4.20;;
14698;SDS011;7439;50.804;4.602;2023-06-26T02:29:45;6.00;;;4.00;;
14698;SDS011;7439;50.804;4.602;2023-06-26T02:32:14;4.80;;;4.40;;
14698;SDS011;7439;50.804;4.602;2023-06-26T02:34:41;7.90;;;4.67;;
14698;SDS011;7439;50.804;4.602;2023-06-26T02:37:09;5.20;;;4.50;;
14698;SDS011;7439;50.804;4.602;2023-06-26T02:39:36;8.53;;;4.50;;
14698;SDS011;7439;50.804;4.602;2023-06-26T02:42:03;5.73;;;4.50;;
14698;SDS011;7439;50.804;4.602;2023-06-26T02:44:31;6.07;;;4.87;;
14698;SDS011;7439;50.804;4.602;2023-06-26T02:46:58;9.67;;;4.30;;
14698;SDS011;7439;50.804;4.602;2023-06-26T02:49:27;6.67;;;4.33;;
14698;SDS011;7439;50.804;4.602;2023-06-26T02:51:55;5.57;;;4.57;;
14698;SDS011;7439;50.804;4.602;2023-06-26T02:54:22;9.63;;;5.17;;
14698;SDS011;7439;50.804;4.602;2023-06-26T02:56:49;8.03;;;4.80;;
14698;SDS011;7439;50.804;4.602;2023-06-26T02:59:17;7.83;;;4.17;;
14698;SDS011;7439;50.804;4.602;2023-06-26T03:01:44;8.63;;;4.70;;
14698;SDS011;7439;50.804;4.602;2023-06-26T03:04:12;8.60;;;4.87;;
14698;SDS011;7439;50.804;4.602;2023-06-26T03:06:41;8.70;;;4.87;;
14698;SDS011;7439;50.804;4.602;2023-06-26T03:09:09;12.27;;;4.73;;
14698;SDS011;7439;50.804;4.602;2023-06-26T03:11:36;6.27;;;4.70;;
14698;SDS011;7439;50.804;4.602;2023-06-26T03:14:04;6.40;;;4.60;;
14698;SDS011;7439;50.804;4.602;2023-06-26T03:16:31;8.83;;;5.07;;
14698;SDS011;7439;50.804;4.602;2023-06-26T03:18:59;9.90;;;4.80;;
14698;SDS011;7439;50.804;4.602;2023-06-26T03:21:26;7.30;;;4.80;;
14698;SDS011;7439;50.804;4.602;2023-06-26T03:23:55;11.10;;;5.20;;
14698;SDS011;7439;50.804;4.602;2023-06-26T03:26:22;13.87;;;5.67;;
14698;SDS011;7439;50.804;4.602;2023-06-26T03:28:52;8.57;;;5.23;;
14698;SDS011;7439;50.804;4.602;2023-06-26T03:31:20;9.27;;;5.23;;
14698;SDS011;7439;50.804;4.602;2023-06-26T03:33:47;8.70;;;5.00;;
14698;SDS011;7439;50.804;4.602;2023-06-26T03:36:14;8.13;;;5.20;;
14698;SDS011;7439;50.804;4.602;2023-06-26T03:38:42;8.37;;;5.30;;
14698;SDS011;7439;50.804;4.602;2023-06-26T03:41:13;9.60;;;5.40;;
14698;SDS011;7439;50.804;4.602;2023-06-26T03:43:40;8.60;;;5.13;;
14698;SDS011;7439;50.804;4.602;2023-06-26T03:46:08;11.83;;;5.70;;
14698;SDS011;7439;50.804;4.602;2023-06-26T03:48:35;8.60;;;4.87;;
14698;SDS011;7439;50.804;4.602;2023-06-26T03:51:03;12.20;;;5.30;;
14698;SDS011;7439;50.804;4.602;2023-06-26T03:53:32;10.03;;;5.67;;
14698;SDS011;7439;50.804;4.602;2023-06-26T03:55:59;7.93;;;5.37;;
14698;SDS011;7439;50.804;4.602;2023-06-26T03:58:28;11.40;;;5.70;;
14698;SDS011;7439;50.804;4.602;2023-06-26T04:00:56;12.17;;;5.90;;
14698;SDS011;7439;50.804;4.602;2023-06-26T04:03:23;10.03;;;5.77;;
14698;SDS011;7439;50.804;4.602;2023-06-26T04:05:51;12.27;;;5.43;;
14698;SDS011;7439;50.804;4.602;2023-06-26T04:08:18;10.40;;;5.33;;
14698;SDS011;7439;50.804;4.602;2023-06-26T04:10:46;10.30;;;5.67;;
14698;SDS011;7439;50.804;4.602;2023-06-26T04:13:13;13.13;;;6.07;;
14698;SDS011;7439;50.804;4.602;2023-06-26T04:15:42;10.60;;;5.57;;
14698;SDS011;7439;50.804;4.602;2023-06-26T04:18:10;13.40;;;5.77;;
14698;SDS011;7439;50.804;4.602;2023-06-26T04:20:39;10.23;;;5.43;;
14698;SDS011;7439;50.804;4.602;2023-06-26T04:23:06;11.70;;;5.10;;
14698;SDS011;7439;50.804;4.602;2023-06-26T04:25:33;11.47;;;5.73;;
14698;SDS011;7439;50.804;4.602;2023-06-26T04:28:02;9.80;;;5.90;;
14698;SDS011;7439;50.804;4.602;2023-06-26T04:30:30;8.13;;;5.30;;
14698;SDS011;7439;50.804;4.602;2023-06-26T04:32:59;15.57;;;6.93;;
14698;SDS011;7439;50.804;4.602;2023-06-26T04:35:26;10.27;;;5.47;;
14698;SDS011;7439;50.804;4.602;2023-06-26T04:37:53;11.63;;;6.03;;
14698;SDS011;7439;50.804;4.602;2023-06-26T04:40:21;10.27;;;5.47;;
14698;SDS011;7439;50.804;4.602;2023-06-26T04:42:48;11.10;;;5.20;;
14698;SDS011;7439;50.804;4.602;2023-06-26T04:45:17;7.93;;;5.17;;
14698;SDS011;7439;50.804;4.602;2023-06-26T04:47:44;10.70;;;5.20;;
14698;SDS011;7439;50.804;4.602;2023-06-26T04:50:13;10.57;;;5.07;;
14698;SDS011;7439;50.804;4.602;2023-06-26T04:52:44;11.43;;;5.37;;
14698;SDS011;7439;50.804;4.602;2023-06-26T04:55:11;10.43;;;5.30;;
14698;SDS011;7439;50.804;4.602;2023-06-26T04:57:38;7.37;;;4.50;;
14698;SDS011;7439;50.804;4.602;2023-06-26T05:00:06;11.87;;;5.13;;
14698;SDS011;7439;50.804;4.602;2023-06-26T05:02:36;8.33;;;4.50;;
14698;SDS011;7439;50.804;4.602;2023-06-26T05:05:03;14.53;;;5.20;;
14698;SDS011;7439;50.804;4.602;2023-06-26T05:07:32;11.23;;;4.93;;
14698;SDS011;7439;50.804;4.602;2023-06-26T05:10:00;12.70;;;5.10;;
14698;SDS011;7439;50.804;4.602;2023-06-26T05:12:27;9.80;;;4.70;;
14698;SDS011;7439;50.804;4.602;2023-06-26T05:14:55;15.63;;;5.47;;
14698;SDS011;7439;50.804;4.602;2023-06-26T05:17:22;10.33;;;5.00;;
14698;SDS011;7439;50.804;4.602;2023-06-26T05:19:50;7.33;;;3.90;;
14698;SDS011;7439;50.804;4.602;2023-06-26T05:22:17;6.07;;;4.10;;
14698;SDS011;7439;50.804;4.602;2023-06-26T05:24:46;10.80;;;4.43;;
14698;SDS011;7439;50.804;4.602;2023-06-26T05:27:14;9.90;;;4.93;;
14698;SDS011;7439;50.804;4.602;2023-06-26T05:29:46;12.63;;;4.67;;
14698;SDS011;7439;50.804;4.602;2023-06-26T05:32:15;11.23;;;4.87;;
14698;SDS011;7439;50.804;4.602;2023-06-26T05:34:44;7.47;;;4.53;;
14698;SDS011;7439;50.804;4.602;2023-06-26T05:37:12;9.93;;;4.30;;
14698;SDS011;7439;50.804;4.602;2023-06-26T05:39:42;9.57;;;4.70;;
14698;SDS011;7439;50.804;4.602;2023-06-26T05:42:11;11.00;;;4.93;;
14698;SDS011;7439;50.804;4.602;2023-06-26T05:44:39;8.00;;;4.20;;
14698;SDS011;7439;50.804;4.602;2023-06-26T05:47:06;9.07;;;4.00;;
14698;SDS011;7439;50.804;4.602;2023-06-26T05:49:34;11.30;;;5.00;;
14698;SDS011;7439;50.804;4.602;2023-06-26T05:52:01;11.67;;;4.37;;
14698;SDS011;7439;50.804;4.602;2023-06-26T05:54:32;11.23;;;3.70;;
14698;SDS011;7439;50.804;4.602;2023-06-26T05:57:00;9.80;;;4.07;;
14698;SDS011;7439;50.804;4.602;2023-06-26T05:59:29;8.83;;;3.83;;
14698;SDS011;7439;50.804;4.602;2023-06-26T06:01:58;9.57;;;3.97;;
14698;SDS011;7439;50.804;4.602;2023-06-26T06:04:25;9.60;;;4.47;;
14698;SDS011;7439;50.804;4.602;2023-06-26T06:06:53;7.23;;;3.63;;
14698;SDS011;7439;50.804;4.602;2023-06-26T06:09:20;11.23;;;4.20;;
14698;SDS011;7439;50.804;4.602;2023-06-26T06:11:47;7.17;;;3.77;;
14698;SDS011;7439;50.804;4.602;2023-06-26T06:14:15;8.00;;;3.70;;
14698;SDS011;7439;50.804;4.602;2023-06-26T06:16:43;8.67;;;3.70;;
14698;SDS011;7439;50.804;4.602;2023-06-26T06:19:11;6.97;;;2.97;;
14698;SDS011;7439;50.804;4.602;2023-06-26T06:21:38;7.03;;;3.50;;
14698;SDS011;7439;50.804;4.602;2023-06-26T06:24:06;7.53;;;3.67;;
14698;SDS011;7439;50.804;4.602;2023-06-26T06:26:34;6.87;;;2.83;;
14698;SDS011;7439;50.804;4.602;2023-06-26T06:29:02;7.80;;;3.20;;
14698;SDS011;7439;50.804;4.602;2023-06-26T06:31:31;7.37;;;3.57;;
14698;SDS011;7439;50.804;4.602;2023-06-26T06:34:00;6.93;;;3.70;;
14698;SDS011;7439;50.804;4.602;2023-06-26T06:36:30;7.23;;;3.40;;
14698;SDS011;7439;50.804;4.602;2023-06-26T06:38:58;7.03;;;3.50;;
14698;SDS011;7439;50.804;4.602;2023-06-26T06:41:25;8.33;;;3.00;;
14698;SDS011;7439;50.804;4.602;2023-06-26T06:43:53;7.90;;;3.33;;
14698;SDS011;7439;50.804;4.602;2023-06-26T06:46:20;11.27;;;3.43;;
14698;SDS011;7439;50.804;4.602;2023-06-26T06:48:48;4.40;;;2.80;;
14698;SDS011;7439;50.804;4.602;2023-06-26T06:51:17;5.87;;;2.73;;
14698;SDS011;7439;50.804;4.602;2023-06-26T06:53:59;6.43;;;3.37;;
14698;SDS011;7439;50.804;4.602;2023-06-26T06:56:27;9.70;;;2.93;;
14698;SDS011;7439;50.804;4.602;2023-06-26T06:58:55;7.93;;;3.00;;
14698;SDS011;7439;50.804;4.602;2023-06-26T07:01:22;9.27;;;3.00;;
14698;SDS011;7439;50.804;4.602;2023-06-26T07:03:50;5.93;;;2.73;;
14698;SDS011;7439;50.804;4.602;2023-06-26T07:06:19;10.47;;;2.93;;
14698;SDS011;7439;50.804;4.602;2023-06-26T07:08:46;7.53;;;2.90;;
14698;SDS011;7439;50.804;4.602;2023-06-26T07:11:13;10.00;;;3.17;;
14698;SDS011;7439;50.804;4.602;2023-06-26T07:13:41;9.40;;;2.77;;
14698;SDS011;7439;50.804;4.602;2023-06-26T07:16:08;8.70;;;2.80;;
14698;SDS011;7439;50.804;4.602;2023-06-26T07:18:37;7.10;;;3.10;;
14698;SDS011;7439;50.804;4.602;2023-06-26T07:21:04;9.33;;;3.10;;
14698;SDS011;7439;50.804;4.602;2023-06-26T07:23:33;8.77;;;3.03;;
14698;SDS011;7439;50.804;4.602;2023-06-26T07:26:00;6.23;;;2.90;;
14698;SDS011;7439;50.804;4.602;2023-06-26T07:28:28;6.70;;;2.93;;
14698;SDS011;7439;50.804;4.602;2023-06-26T07:30:55;5.67;;;2.80;;
14698;SDS011;7439;50.804;4.602;2023-06-26T07:33:23;8.50;;;2.97;;
14698;SDS011;7439;50.804;4.602;2023-06-26T07:35:50;5.30;;;2.30;;
14698;SDS011;7439;50.804;4.602;2023-06-26T07:38:17;6.33;;;2.67;;
14698;SDS011;7439;50.804;4.602;2023-06-26T07:40:46;6.33;;;2.50;;
14698;SDS011;7439;50.804;4.602;2023-06-26T07:43:14;7.93;;;2.43;;
14698;SDS011;7439;50.804;4.602;2023-06-26T07:45:41;8.80;;;3.27;;
14698;SDS011;7439;50.804;4.602;2023-06-26T07:48:08;4.73;;;2.70;;
14698;SDS011;7439;50.804;4.602;2023-06-26T07:50:36;4.60;;;2.57;;
14698;SDS011;7439;50.804;4.602;2023-06-26T07:53:03;5.57;;;2.37;;
14698;SDS011;7439;50.804;4.602;2023-06-26T07:55:31;3.60;;;2.47;;
14698;SDS011;7439;50.804;4.602;2023-06-26T07:58:00;6.53;;;2.80;;
14698;SDS011;7439;50.804;4.602;2023-06-26T08:00:30;4.70;;;2.20;;
14698;SDS011;7439;50.804;4.602;2023-06-26T08:02:57;4.23;;;2.30;;
14698;SDS011;7439;50.804;4.602;2023-06-26T08:05:24;5.53;;;2.63;;
14698;SDS011;7439;50.804;4.602;2023-06-26T08:07:53;5.10;;;2.60;;
14698;SDS011;7439;50.804;4.602;2023-06-26T08:10:20;7.60;;;2.90;;
14698;SDS011;7439;50.804;4.602;2023-06-26T08:12:48;7.87;;;2.50;;
14698;SDS011;7439;50.804;4.602;2023-06-26T08:15:18;5.67;;;2.20;;
14698;SDS011;7439;50.804;4.602;2023-06-26T08:17:46;4.00;;;2.10;;
14698;SDS011;7439;50.804;4.602;2023-06-26T08:20:15;4.87;;;2.53;;
14698;SDS011;7439;50.804;4.602;2023-06-26T08:22:57;3.93;;;2.00;;
14698;SDS011;7439;50.804;4.602;2023-06-26T08:25:26;3.53;;;1.90;;
14698;SDS011;7439;50.804;4.602;2023-06-26T08:27:53;5.77;;;2.03;;
14698;SDS011;7439;50.804;4.602;2023-06-26T08:30:24;4.43;;;2.40;;
14698;SDS011;7439;50.804;4.602;2023-06-26T08:32:53;7.57;;;2.27;;
14698;SDS011;7439;50.804;4.602;2023-06-26T08:35:20;6.23;;;2.60;;
14698;SDS011;7439;50.804;4.602;2023-06-26T08:37:53;5.50;;;2.20;;
14698;SDS011;7439;50.804;4.602;2023-06-26T08:40:21;4.70;;;2.07;;
14698;SDS011;7439;50.804;4.602;2023-06-26T08:42:52;7.63;;;2.77;;
14698;SDS011;7439;50.804;4.602;2023-06-26T08:45:19;5.57;;;2.23;;
14698;SDS011;7439;50.804;4.602;2023-06-26T08:47:48;5.00;;;2.30;;
14698;SDS011;7439;50.804;4.602;2023-06-26T08:50:19;4.17;;;2.07;;
14698;SDS011;7439;50.804;4.602;2023-06-26T08:52:52;4.17;;;2.47;;
14698;SDS011;7439;50.804;4.602;2023-06-26T08:55:22;3.77;;;2.00;;
14698;SDS011;7439;50.804;4.602;2023-06-26T08:57:50;4.60;;;2.27;;
14698;SDS011;7439;50.804;4.602;2023-06-26T09:00:24;4.53;;;2.00;;
14698;SDS011;7439;50.804;4.602;2023-06-26T09:02:56;4.23;;;2.33;;
14698;SDS011;7439;50.804;4.602;2023-06-26T09:05:23;4.23;;;2.33;;
14698;SDS011;7439;50.804;4.602;2023-06-26T09:07:53;4.53;;;1.80;;
14698;SDS011;7439;50.804;4.602;2023-06-26T09:10:24;3.50;;;2.07;;
14698;SDS011;7439;50.804;4.602;2023-06-26T09:12:55;3.70;;;2.07;;
14698;SDS011;7439;50.804;4.602;2023-06-26T09:15:36;3.00;;;2.13;;
14698;SDS011;7439;50.804;4.602;2023-06-26T09:18:07;3.47;;;1.90;;
14698;SDS011;7439;50.804;4.602;2023-06-26T09:20:34;6.37;;;2.17;;
14698;SDS011;7439;50.804;4.602;2023-06-26T09:23:04;3.57;;;2.10;;
14698;SDS011;7439;50.804;4.602;2023-06-26T09:25:33;2.73;;;1.83;;
14698;SDS011;7439;50.804;4.602;2023-06-26T09:28:08;3.00;;;2.07;;
14698;SDS011;7439;50.804;4.602;2023-06-26T09:30:36;4.97;;;2.20;;
14698;SDS011;7439;50.804;4.602;2023-06-26T09:35:50;5.53;;;2.00;;
14698;SDS011;7439;50.804;4.602;2023-06-26T09:38:18;4.07;;;1.97;;
14698;SDS011;7439;50.804;4.602;2023-06-26T09:40:46;6.80;;;2.33;;
14698;SDS011;7439;50.804;4.602;2023-06-26T09:43:13;4.57;;;1.90;;
14698;SDS011;7439;50.804;4.602;2023-06-26T09:45:41;3.17;;;2.00;;
14698;SDS011;7439;50.804;4.602;2023-06-26T09:48:08;3.60;;;1.87;;
14698;SDS011;7439;50.804;4.602;2023-06-26T09:50:36;2.40;;;1.67;;
14698;SDS011;7439;50.804;4.602;2023-06-26T09:53:10;3.73;;;1.83;;
14698;SDS011;7439;50.804;4.602;2023-06-26T09:55:38;2.60;;;1.63;;
14698;SDS011;7439;50.804;4.602;2023-06-26T09:58:09;3.37;;;2.00;;
14698;SDS011;7439;50.804;4.602;2023-06-26T10:00:40;3.67;;;1.83;;
14698;SDS011;7439;50.804;4.602;2023-06-26T10:03:07;2.23;;;1.77;;
14698;SDS011;7439;50.804;4.602;2023-06-26T10:05:35;3.20;;;1.80;;
14698;SDS011;7439;50.804;4.602;2023-06-26T10:08:04;5.23;;;2.20;;
14698;SDS011;7439;50.804;4.602;2023-06-26T10:10:35;4.03;;;1.83;;
14698;SDS011;7439;50.804;4.602;2023-06-26T10:13:12;3.07;;;1.80;;
14698;SDS011;7439;50.804;4.602;2023-06-26T10:15:41;5.53;;;1.90;;
14698;SDS011;7439;50.804;4.602;2023-06-26T10:18:09;5.30;;;1.97;;
14698;SDS011;7439;50.804;4.602;2023-06-26T10:20:37;3.83;;;1.90;;
14698;SDS011;7439;50.804;4.602;2023-06-26T10:23:05;3.87;;;1.87;;
14698;SDS011;7439;50.804;4.602;2023-06-26T10:25:36;3.97;;;2.00;;
14698;SDS011;7439;50.804;4.602;2023-06-26T10:28:05;3.73;;;1.90;;
14698;SDS011;7439;50.804;4.602;2023-06-26T10:30:35;3.70;;;1.70;;
14698;SDS011;7439;50.804;4.602;2023-06-26T10:33:04;5.77;;;1.87;;
14698;SDS011;7439;50.804;4.602;2023-06-26T10:35:32;3.07;;;1.90;;
14698;SDS011;7439;50.804;4.602;2023-06-26T10:38:00;3.37;;;1.77;;
14698;SDS011;7439;50.804;4.602;2023-06-26T10:43:16;2.60;;;1.80;;
14698;SDS011;7439;50.804;4.602;2023-06-26T10:45:49;3.20;;;1.63;;
14698;SDS011;7439;50.804;4.602;2023-06-26T10:48:22;3.17;;;1.90;;
14698;SDS011;7439;50.804;4.602;2023-06-26T10:50:49;2.73;;;2.10;;
14698;SDS011;7439;50.804;4.602;2023-06-26T10:53:22;3.03;;;1.53;;
14698;SDS011;7439;50.804;4.602;2023-06-26T10:55:55;3.90;;;1.87;;
14698;SDS011;7439;50.804;4.602;2023-06-26T10:58:31;2.23;;;1.67;;
14698;SDS011;7439;50.804;4.602;2023-06-26T11:01:17;3.43;;;1.60;;
14698;SDS011;7439;50.804;4.602;2023-06-26T11:03:45;2.33;;;1.83;;
14698;SDS011;7439;50.804;4.602;2023-06-26T11:06:18;2.47;;;1.70;;
14698;SDS011;7439;50.804;4.602;2023-06-26T11:08:46;4.90;;;2.20;;
14698;SDS011;7439;50.804;4.602;2023-06-26T11:11:14;4.83;;;1.80;;
14698;SDS011;7439;50.804;4.602;2023-06-26T11:13:44;4.30;;;2.37;;
14698;SDS011;7439;50.804;4.602;2023-06-26T11:16:12;3.97;;;2.10;;
14698;SDS011;7439;50.804;4.602;2023-06-26T11:18:41;6.67;;;2.20;;
14698;SDS011;7439;50.804;4.602;2023-06-26T11:21:09;4.60;;;2.17;;
14698;SDS011;7439;50.804;4.602;2023-06-26T11:23:40;3.70;;;1.83;;
14698;SDS011;7439;50.804;4.602;2023-06-26T11:26:15;5.83;;;1.80;;
14698;SDS011;7439;50.804;4.602;2023-06-26T11:28:48;3.00;;;1.90;;
14698;SDS011;7439;50.804;4.602;2023-06-26T11:31:26;2.43;;;1.73;;
14698;SDS011;7439;50.804;4.602;2023-06-26T11:34:00;3.70;;;2.10;;
14698;SDS011;7439;50.804;4.602;2023-06-26T11:36:35;7.57;;;2.30;;
14698;SDS011;7439;50.804;4.602;2023-06-26T11:39:04;4.43;;;1.80;;
14698;SDS011;7439;50.804;4.602;2023-06-26T11:41:33;2.73;;;1.63;;
14698;SDS011;7439;50.804;4.602;2023-06-26T11:44:08;3.57;;;1.90;;
14698;SDS011;7439;50.804;4.602;2023-06-26T11:46:36;2.43;;;1.73;;
14698;SDS011;7439;50.804;4.602;2023-06-26T11:49:18;3.63;;;1.80;;
14698;SDS011;7439;50.804;4.602;2023-06-26T11:51:48;4.27;;;2.00;;
14698;SDS011;7439;50.804;4.602;2023-06-26T11:54:23;3.97;;;2.20;;
14698;SDS011;7439;50.804;4.602;2023-06-26T11:56:54;5.10;;;1.93;;
14698;SDS011;7439;50.804;4.602;2023-06-26T12:05:44;3.10;;;2.07;;
14698;SDS011;7439;50.804;4.602;2023-06-26T13:28:29;2.60;;;1.77;;
14698;SDS011;7439;50.804;4.602;2023-06-26T13:30:56;3.27;;;1.90;;
14698;SDS011;7439;50.804;4.602;2023-06-26T13:33:24;3.33;;;1.73;;
14698;SDS011;7439;50.804;4.602;2023-06-26T13:36:01;2.13;;;1.70;;
14698;SDS011;7439;50.804;4.602;2023-06-26T13:38:42;2.80;;;2.13;;
14698;SDS011;7439;50.804;4.602;2023-06-26T13:41:10;3.33;;;1.83;;
14698;SDS011;7439;50.804;4.602;2023-06-26T14:14:06;2.83;;;2.00;;
14698;SDS011;7439;50.804;4.602;2023-06-26T14:17:08;3.53;;;2.00;;
14698;SDS011;7439;50.804;4.602;2023-06-26T14:19:45;2.07;;;1.77;;
14698;SDS011;7439;50.804;4.602;2023-06-26T14:22:34;3.10;;;2.10;;
14698;SDS011;7439;50.804;4.602;2023-06-26T14:25:40;3.67;;;1.73;;
14698;SDS011;7439;50.804;4.602;2023-06-26T14:28:22;4.07;;;2.37;;
14698;SDS011;7439;50.804;4.602;2023-06-26T14:34:21;3.93;;;1.77;;
14698;SDS011;7439;50.804;4.602;2023-06-26T14:42:43;4.20;;;2.13;;
14698;SDS011;7439;50.804;4.602;2023-06-26T14:45:11;3.30;;;2.07;;
14698;SDS011;7439;50.804;4.602;2023-06-26T14:47:39;2.93;;;2.07;;
14698;SDS011;7439;50.804;4.602;2023-06-26T14:50:08;2.53;;;1.70;;
14698;SDS011;7439;50.804;4.602;2023-06-26T14:52:36;2.10;;;1.67;;
14698;SDS011;7439;50.804;4.602;2023-06-26T14:55:04;3.57;;;2.20;;
14698;SDS011;7439;50.804;4.602;2023-06-26T14:57:31;4.03;;;2.20;;
14698;SDS011;7439;50.804;4.602;2023-06-26T14:59:59;5.07;;;1.90;;
14698;SDS011;7439;50.804;4.602;2023-06-26T15:02:26;4.00;;;2.13;;
14698;SDS011;7439;50.804;4.602;2023-06-26T15:04:53;4.47;;;2.00;;
14698;SDS011;7439;50.804;4.602;2023-06-26T15:07:22;2.77;;;2.20;;
14698;SDS011;7439;50.804;4.602;2023-06-26T15:09:49;3.33;;;1.70;;
14698;SDS011;7439;50.804;4.602;2023-06-26T15:12:17;3.43;;;2.07;;
14698;SDS011;7439;50.804;4.602;2023-06-26T15:14:45;4.90;;;2.17;;
14698;SDS011;7439;50.804;4.602;2023-06-26T15:17:17;3.70;;;2.07;;
14698;SDS011;7439;50.804;4.602;2023-06-26T15:19:59;2.87;;;2.00;;
14698;SDS011;7439;50.804;4.602;2023-06-26T15:22:29;3.37;;;1.80;;
14698;SDS011;7439;50.804;4.602;2023-06-26T15:24:56;3.77;;;1.87;;
14698;SDS011;7439;50.804;4.602;2023-06-26T15:27:25;3.07;;;2.10;;
14698;SDS011;7439;50.804;4.602;2023-06-26T15:29:58;7.17;;;2.33;;
14698;SDS011;7439;50.804;4.602;2023-06-26T15:32:32;2.57;;;1.80;;
14698;SDS011;7439;50.804;4.602;2023-06-26T15:37:50;5.93;;;2.33;;
14698;SDS011;7439;50.804;4.602;2023-06-26T15:40:32;3.77;;;2.10;;
14698;SDS011;7439;50.804;4.602;2023-06-26T15:42:59;4.47;;;2.20;;
14698;SDS011;7439;50.804;4.602;2023-06-26T15:45:49;4.40;;;2.17;;
14698;SDS011;7439;50.804;4.602;2023-06-26T15:51:06;2.40;;;1.90;;
14698;SDS011;7439;50.804;4.602;2023-06-26T15:57:19;4.50;;;2.30;;
14698;SDS011;7439;50.804;4.602;2023-06-26T15:59:55;2.63;;;2.00;;
14698;SDS011;7439;50.804;4.602;2023-06-26T16:02:26;4.40;;;1.97;;
14698;SDS011;7439;50.804;4.602;2023-06-26T16:05:14;3.37;;;2.20;;
14698;SDS011;7439;50.804;4.602;2023-06-26T16:07:41;2.57;;;2.00;;
14698;SDS011;7439;50.804;4.602;2023-06-26T16:10:12;2.53;;;1.77;;
14698;SDS011;7439;50.804;4.602;2023-06-26T16:15:27;4.83;;;2.53;;
14698;SDS011;7439;50.804;4.602;2023-06-26T16:17:55;4.77;;;1.80;;
14698;SDS011;7439;50.804;4.602;2023-06-26T16:20:43;3.40;;;2.00;;
14698;SDS011;7439;50.804;4.602;2023-06-26T16:23:13;5.67;;;2.40;;
14698;SDS011;7439;50.804;4.602;2023-06-26T16:25:40;4.93;;;2.30;;
14698;SDS011;7439;50.804;4.602;2023-06-26T16:39:48;3.20;;;2.00;;
14698;SDS011;7439;50.804;4.602;2023-06-26T16:42:18;3.13;;;2.30;;
14698;SDS011;7439;50.804;4.602;2023-06-26T16:44:54;5.63;;;2.10;;
14698;SDS011;7439;50.804;4.602;2023-06-26T16:47:22;3.27;;;2.00;;
14698;SDS011;7439;50.804;4.602;2023-06-26T16:49:49;2.70;;;1.80;;
14698;SDS011;7439;50.804;4.602;2023-06-26T16:52:17;4.47;;;2.07;;
14698;SDS011;7439;50.804;4.602;2023-06-26T16:54:44;3.87;;;2.07;;
14698;SDS011;7439;50.804;4.602;2023-06-26T16:57:14;2.70;;;1.90;;
14698;SDS011;7439;50.804;4.602;2023-06-26T16:59:41;5.00;;;2.30;;
14698;SDS011;7439;50.804;4.602;2023-06-26T17:02:09;4.20;;;2.20;;
14698;SDS011;7439;50.804;4.602;2023-06-26T17:04:37;5.23;;;1.93;;
14698;SDS011;7439;50.804;4.602;2023-06-26T17:07:04;4.40;;;1.97;;
14698;SDS011;7439;50.804;4.602;2023-06-26T17:09:32;3.40;;;1.90;;
14698;SDS011;7439;50.804;4.602;2023-06-26T17:11:59;3.83;;;1.67;;
14698;SDS011;7439;50.804;4.602;2023-06-26T17:14:29;3.60;;;1.93;;
14698;SDS011;7439;50.804;4.602;2023-06-26T17:16:56;2.63;;;1.87;;
14698;SDS011;7439;50.804;4.602;2023-06-26T17:19:23;2.70;;;1.80;;
14698;SDS011;7439;50.804;4.602;2023-06-26T17:21:51;3.97;;;2.10;;
14698;SDS011;7439;50.804;4.602;2023-06-26T17:24:18;3.33;;;1.90;;
14698;SDS011;7439;50.804;4.602;2023-06-26T17:26:45;4.30;;;2.00;;
14698;SDS011;7439;50.804;4.602;2023-06-26T17:29:13;2.90;;;1.93;;
14698;SDS011;7439;50.804;4.602;2023-06-26T17:31:42;6.23;;;2.47;;
14698;SDS011;7439;50.804;4.602;2023-06-26T17:34:10;6.43;;;2.13;;
14698;SDS011;7439;50.804;4.602;2023-06-26T17:36:39;3.17;;;1.63;;
14698;SDS011;7439;50.804;4.602;2023-06-26T17:39:09;2.87;;;1.70;;
14698;SDS011;7439;50.804;4.602;2023-06-26T17:41:36;3.77;;;1.93;;
14698;SDS011;7439;50.804;4.602;2023-06-26T17:44:04;3.30;;;1.67;;
14698;SDS011;7439;50.804;4.602;2023-06-26T17:46:31;4.37;;;1.93;;
14698;SDS011;7439;50.804;4.602;2023-06-26T17:49:00;4.03;;;1.90;;
14698;SDS011;7439;50.804;4.602;2023-06-26T17:51:28;4.03;;;1.80;;